createdAt,value
2023-03-13T00:01:29.565Z,100.00
2023-03-13T00:03:56.947Z,100.00
2023-03-13T00:06:26.716Z,100.00
2023-03-13T00:08:55.909Z,100.00
2023-03-13T00:11:22.960Z,100.00
2023-03-13T00:13:55.512Z,100.00
2023-03-13T00:16:22.721Z,100.00
2023-03-13T00:18:52.583Z,100.00
2023-03-13T00:21:22.449Z,100.00
2023-03-13T00:23:50.100Z,100.00
2023-03-13T00:26:20.715Z,100.00
2023-03-13T00:28:48.527Z,100.00
2023-03-13T00:31:18.594Z,100.00
2023-03-13T00:33:48.836Z,100.00
2023-03-13T00:36:25.168Z,100.00
2023-03-13T00:38:53.612Z,100.00
2023-03-13T00:41:29.704Z,100.00
2023-03-13T00:43:57.102Z,100.00
2023-03-13T00:46:27.407Z,100.00
2023-03-13T00:48:54.589Z,100.00
2023-03-13T00:51:27.049Z,100.00
2023-03-13T00:53:56.205Z,100.00
2023-03-13T00:56:23.432Z,100.00
2023-03-13T00:58:51.131Z,100.00
2023-03-13T01:01:28.464Z,100.00
2023-03-13T01:03:59.598Z,100.00
2023-03-13T01:06:29.897Z,100.00
2023-03-13T01:08:59.155Z,100.00
2023-03-13T01:11:30.802Z,100.00
2023-03-13T01:14:02.287Z,100.00
2023-03-13T01:16:32.727Z,100.00
2023-03-13T01:19:03.124Z,100.00
2023-03-13T01:21:30.683Z,100.00
2023-03-13T01:23:58.373Z,100.00
2023-03-13T01:26:26.339Z,100.00
2023-03-13T01:28:54.642Z,100.00
2023-03-13T01:31:39.980Z,100.00
2023-03-13T01:34:09.849Z,100.00
2023-03-13T01:36:38.046Z,100.00
2023-03-13T01:39:06.297Z,100.00
2023-03-13T01:41:33.730Z,100.00
2023-03-13T01:44:01.067Z,100.00
2023-03-13T01:46:36.767Z,100.00
2023-03-13T01:49:34.674Z,100.00
2023-03-13T01:52:27.580Z,100.00
2023-03-13T01:55:09.736Z,100.00
2023-03-13T01:57:46.065Z,100.00
2023-03-13T02:00:18.640Z,100.00
2023-03-13T02:02:55.784Z,100.00
2023-03-13T02:05:26.484Z,100.00
2023-03-13T02:08:12.276Z,100.00
2023-03-13T02:10:50.465Z,100.00
2023-03-13T02:13:18.742Z,100.00
2023-03-13T02:15:46.649Z,100.00
2023-03-13T02:18:15.361Z,100.00
2023-03-13T02:20:42.783Z,100.00
2023-03-13T02:23:42.340Z,100.00
2023-03-13T02:26:09.463Z,100.00
2023-03-13T02:28:39.403Z,100.00
2023-03-13T02:31:11.128Z,100.00
2023-03-13T02:33:41.482Z,100.00
2023-03-13T02:36:12.749Z,100.00
2023-03-13T02:38:49.554Z,100.00
2023-03-13T02:41:19.136Z,100.00
2023-03-13T02:43:46.400Z,100.00
2023-03-13T02:46:18.669Z,100.00
2023-03-13T02:48:57.258Z,100.00
2023-03-13T02:51:36.700Z,100.00
2023-03-13T02:54:10.753Z,100.00
2023-03-13T02:56:40.979Z,100.00
2023-03-13T02:59:09.719Z,100.00
2023-03-13T03:01:39.744Z,100.00
2023-03-13T03:04:06.948Z,100.00
2023-03-13T03:06:34.300Z,100.00
2023-03-13T03:09:03.858Z,100.00
2023-03-13T03:11:34.169Z,100.00
2023-03-13T03:14:06.855Z,100.00
2023-03-13T03:16:39.492Z,100.00
2023-03-13T03:19:06.931Z,100.00
2023-03-13T03:21:34.871Z,100.00
2023-03-13T03:24:02.226Z,100.00
2023-03-13T03:26:29.391Z,100.00
2023-03-13T03:28:57.053Z,100.00
2023-03-13T03:31:24.575Z,100.00
2023-03-13T03:33:51.617Z,100.00
2023-03-13T03:36:22.785Z,100.00
2023-03-13T03:38:50.816Z,100.00
2023-03-13T03:41:21.001Z,100.00
2023-03-13T03:43:49.249Z,100.00
2023-03-13T03:46:19.547Z,100.00
2023-03-13T03:48:46.652Z,100.00
2023-03-13T03:51:14.510Z,100.00
2023-03-13T03:53:44.022Z,100.00
2023-03-13T03:56:11.004Z,100.00
2023-03-13T03:58:43.158Z,100.00
2023-03-13T04:01:16.763Z,100.00
2023-03-13T04:03:44.215Z,100.00
2023-03-13T04:06:12.840Z,100.00
2023-03-13T04:08:39.998Z,100.00
2023-03-13T04:11:08.232Z,100.00
2023-03-13T04:13:38.731Z,100.00
2023-03-13T04:16:09.695Z,100.00
2023-03-13T04:18:37.525Z,100.00
2023-03-13T04:21:06.242Z,100.00
2023-03-13T04:23:53.520Z,100.00
2023-03-13T04:26:21.148Z,100.00
2023-03-13T04:28:51.061Z,100.00
2023-03-13T04:31:24.316Z,100.00
2023-03-13T04:34:26.600Z,100.00
2023-03-13T04:37:07.354Z,100.00
2023-03-13T04:39:53.880Z,100.00
2023-03-13T04:42:49.823Z,100.00
2023-03-13T04:45:46.597Z,100.00
2023-03-13T04:48:22.768Z,100.00
2023-03-13T04:51:07.166Z,100.00
2023-03-13T04:53:57.048Z,100.00
2023-03-13T04:56:44.428Z,100.00
2023-03-13T04:59:26.456Z,100.00
2023-03-13T05:02:13.955Z,100.00
2023-03-13T05:04:52.690Z,100.00
2023-03-13T05:07:48.650Z,100.00
2023-03-13T05:10:33.896Z,100.00
2023-03-13T05:13:26.799Z,100.00
2023-03-13T05:16:10.537Z,100.00
2023-03-13T05:19:16.223Z,100.00
2023-03-13T05:22:00.993Z,100.00
2023-03-13T05:24:46.510Z,100.00
2023-03-13T05:27:28.570Z,100.00
2023-03-13T05:30:14.180Z,100.00
2023-03-13T05:33:02.222Z,100.00
2023-03-13T05:35:43.210Z,100.00
2023-03-13T05:38:45.845Z,100.00
2023-03-13T05:41:12.818Z,100.00
2023-03-13T05:43:39.841Z,100.00
2023-03-13T05:46:22.840Z,100.00
2023-03-13T05:48:57.304Z,100.00
2023-03-13T05:51:47.225Z,100.00
2023-03-13T05:54:34.261Z,100.00
2023-03-13T05:57:10.364Z,100.00
2023-03-13T05:59:57.607Z,100.00
2023-03-13T06:02:53.908Z,100.00
2023-03-13T06:05:28.106Z,100.00
2023-03-13T06:07:55.248Z,100.00
2023-03-13T06:10:22.294Z,100.00
2023-03-13T06:12:56.857Z,100.00
2023-03-13T06:15:28.377Z,100.00
2023-03-13T06:17:59.293Z,100.00
2023-03-13T06:20:26.321Z,100.00
2023-03-13T06:22:54.487Z,100.00
2023-03-13T06:25:22.473Z,100.00
2023-03-13T06:27:49.409Z,100.00
2023-03-13T06:30:16.792Z,100.00
2023-03-13T06:32:43.818Z,100.00
2023-03-13T06:35:10.928Z,100.00
2023-03-13T06:37:38.017Z,100.00
2023-03-13T06:40:06.956Z,100.00
2023-03-13T06:42:33.983Z,100.00
2023-03-13T06:45:00.965Z,100.00
2023-03-13T06:47:27.883Z,100.00
2023-03-13T06:49:54.825Z,100.00
2023-03-13T06:52:26.432Z,100.00
2023-03-13T06:54:58.463Z,100.00
2023-03-13T06:57:25.538Z,100.00
2023-03-13T06:59:52.597Z,100.00
2023-03-13T07:02:19.508Z,100.00
2023-03-13T07:04:46.607Z,100.00
2023-03-13T07:07:25.541Z,100.00
2023-03-13T07:09:53.026Z,100.00
2023-03-13T07:12:20.041Z,100.00
2023-03-13T07:14:47.047Z,100.00
2023-03-13T07:17:13.963Z,100.00
2023-03-13T07:19:41.175Z,100.00
2023-03-13T07:22:08.164Z,100.00
2023-03-13T07:24:35.184Z,100.00
2023-03-13T07:27:07.600Z,100.00
2023-03-13T07:29:34.870Z,100.00
2023-03-13T07:32:02.023Z,100.00
2023-03-13T07:34:29.152Z,100.00
2023-03-13T07:36:56.152Z,100.00
2023-03-13T07:39:23.243Z,100.00
2023-03-13T07:41:50.204Z,100.00
2023-03-13T07:44:18.236Z,100.00
2023-03-13T07:46:46.004Z,100.00
2023-03-13T07:49:13.474Z,100.00
2023-03-13T07:51:43.796Z,100.00
2023-03-13T07:54:11.938Z,100.00
2023-03-13T07:56:39.728Z,100.00
2023-03-13T07:59:07.110Z,100.00
2023-03-13T08:01:34.169Z,100.00
2023-03-13T08:04:01.713Z,100.00
2023-03-13T08:06:34.248Z,100.00
2023-03-13T08:09:02.479Z,100.00
2023-03-13T08:11:29.788Z,100.00
2023-03-13T08:13:58.397Z,100.00
2023-03-13T08:16:29.965Z,100.00
2023-03-13T08:18:58.835Z,100.00
2023-03-13T08:21:29.328Z,100.00
2023-03-13T08:23:59.598Z,100.00
2023-03-13T08:26:29.676Z,100.00
2023-03-13T08:29:03.841Z,100.00
2023-03-13T08:31:47.515Z,100.00
2023-03-13T08:34:16.743Z,100.00
2023-03-13T08:36:43.836Z,100.00
2023-03-13T08:39:19.668Z,100.00
2023-03-13T08:41:47.407Z,100.00
2023-03-13T08:44:17.971Z,100.00
2023-03-13T08:46:45.433Z,100.00
2023-03-13T08:49:13.384Z,100.00
2023-03-13T08:51:40.850Z,100.00
2023-03-13T08:54:07.974Z,100.00
2023-03-13T08:56:35.156Z,100.00
2023-03-13T08:59:04.585Z,100.00
2023-03-13T09:01:34.722Z,100.00
2023-03-13T09:04:04.722Z,100.00
2023-03-13T09:06:33.867Z,100.00
2023-03-13T09:09:01.783Z,100.00
2023-03-13T09:11:29.160Z,100.00
2023-03-13T09:13:59.209Z,100.00
2023-03-13T09:16:29.361Z,100.00
2023-03-13T09:18:58.369Z,100.00
2023-03-13T09:21:32.174Z,100.00
2023-03-13T09:23:59.964Z,100.00
2023-03-13T09:26:28.086Z,100.00
2023-03-13T09:28:55.583Z,100.00
2023-03-13T09:31:32.089Z,100.00
2023-03-13T09:34:00.653Z,100.00
2023-03-13T09:36:28.553Z,100.00
2023-03-13T09:38:59.065Z,100.00
2023-03-13T09:41:40.652Z,100.00
2023-03-13T09:44:39.706Z,100.00
2023-03-13T09:47:30.541Z,100.00
2023-03-13T09:50:12.488Z,100.00
2023-03-13T09:52:41.608Z,100.00
2023-03-13T09:55:21.468Z,100.00
2023-03-13T09:58:11.324Z,100.00
2023-03-13T10:00:44.192Z,100.00
2023-03-13T10:03:11.033Z,100.00
2023-03-13T10:05:50.020Z,100.00
2023-03-13T10:08:20.647Z,100.00
2023-03-13T10:11:09.265Z,100.00
2023-03-13T10:14:17.552Z,100.00
2023-03-13T10:17:15.874Z,100.00
2023-03-13T10:19:43.762Z,100.00
2023-03-13T10:22:20.439Z,100.00
2023-03-13T10:25:09.766Z,100.00
2023-03-13T10:27:51.198Z,100.00
2023-03-13T10:30:31.533Z,100.00
2023-03-13T10:33:07.083Z,99.68
2023-03-13T10:35:37.719Z,92.58
2023-03-13T10:38:15.000Z,92.62
2023-03-13T10:40:42.913Z,87.30
2023-03-13T10:43:22.582Z,81.88
2023-03-13T10:45:49.645Z,78.12
2023-03-13T10:48:22.205Z,82.47
2023-03-13T10:50:57.262Z,80.24
2023-03-13T10:53:28.381Z,80.48
2023-03-13T10:56:05.265Z,76.29
2023-03-13T10:58:41.110Z,77.73
2023-03-13T11:01:18.959Z,80.23
2023-03-13T11:03:47.760Z,84.63
2023-03-13T11:06:33.032Z,87.16
2023-03-13T11:09:04.538Z,84.53
2023-03-13T11:11:31.964Z,85.21
2023-03-13T11:14:09.926Z,79.03
2023-03-13T11:16:50.803Z,79.15
2023-03-13T11:19:42.426Z,72.74
2023-03-13T11:22:18.694Z,65.21
2023-03-13T11:25:09.875Z,62.42
2023-03-13T11:28:15.611Z,61.90
2023-03-13T11:31:01.808Z,66.75
2023-03-13T11:33:53.470Z,63.97
2023-03-13T11:36:52.694Z,61.34
2023-03-13T11:40:15.025Z,60.73
2023-03-13T11:43:17.953Z,59.40
2023-03-13T11:46:09.785Z,56.15
2023-03-13T11:49:01.302Z,54.87
2023-03-13T11:51:53.150Z,53.04
2023-03-13T11:54:54.670Z,53.15
2023-03-13T11:57:31.937Z,52.36
2023-03-13T12:00:14.142Z,54.19
2023-03-13T12:02:52.291Z,55.91
2023-03-13T12:05:21.278Z,59.67
2023-03-13T12:08:10.712Z,57.14
2023-03-13T12:10:59.555Z,56.83
2023-03-13T12:13:32.020Z,53.62
2023-03-13T12:16:09.993Z,57.15
2023-03-13T12:18:39.639Z,56.26
2023-03-13T12:21:27.172Z,55.56
2023-03-13T12:24:31.313Z,58.13
2023-03-13T12:27:09.271Z,61.63
2023-03-13T12:30:12.048Z,60.29
2023-03-13T12:33:05.890Z,63.86
2023-03-13T12:35:33.704Z,61.57
2023-03-13T12:38:33.686Z,63.50
2023-03-13T12:41:14.374Z,65.46
2023-03-13T12:43:44.137Z,62.04
2023-03-13T12:46:31.021Z,59.66
2023-03-13T12:49:13.368Z,60.93
2023-03-13T12:51:46.479Z,58.85
2023-03-13T12:54:16.862Z,61.76
2023-03-13T12:57:01.587Z,64.73
2023-03-13T12:59:34.882Z,61.37
2023-03-13T13:02:03.674Z,60.25
2023-03-13T13:04:43.386Z,59.02
2023-03-13T13:07:22.393Z,56.05
2023-03-13T13:10:11.228Z,52.40
2023-03-13T13:12:47.334Z,50.97
2023-03-13T13:15:26.477Z,51.38
2023-03-13T13:17:59.323Z,53.63
2023-03-13T13:20:30.505Z,53.85
2023-03-13T13:23:18.635Z,54.77
2023-03-13T13:25:46.056Z,55.53
2023-03-13T13:28:35.054Z,56.30
2023-03-13T13:31:02.659Z,53.16
2023-03-13T13:33:30.946Z,51.11
2023-03-13T13:36:10.649Z,53.32
2023-03-13T13:38:47.199Z,53.89
2023-03-13T13:41:14.453Z,57.37
2023-03-13T13:43:49.084Z,55.64
2023-03-13T13:46:33.167Z,56.46
2023-03-13T13:49:06.819Z,56.23
2023-03-13T13:51:56.725Z,55.46
2023-03-13T13:54:34.558Z,56.87
2023-03-13T13:57:18.562Z,55.89
2023-03-13T14:00:21.971Z,56.90
2023-03-13T14:02:54.750Z,58.40
2023-03-13T14:05:23.604Z,56.61
2023-03-13T14:07:59.261Z,56.65
2023-03-13T14:10:34.127Z,55.61
2023-03-13T14:13:03.767Z,56.14
2023-03-13T14:15:32.435Z,57.09
2023-03-13T14:18:09.030Z,58.13
2023-03-13T14:20:37.652Z,56.73
2023-03-13T14:23:07.425Z,55.95
2023-03-13T14:25:49.090Z,56.92
2023-03-13T14:28:22.784Z,55.88
2023-03-13T14:30:57.760Z,55.65
2023-03-13T14:33:29.154Z,56.72
2023-03-13T14:35:57.860Z,55.71
2023-03-13T14:38:27.449Z,55.97
2023-03-13T14:40:56.020Z,56.17
2023-03-13T14:43:35.597Z,55.63
2023-03-13T14:46:16.108Z,56.44
2023-03-13T14:48:43.768Z,55.29
2023-03-13T14:51:25.854Z,55.73
2023-03-13T14:54:01.240Z,55.77
2023-03-13T14:56:42.528Z,55.17
2023-03-13T14:59:17.279Z,55.40
2023-03-13T15:01:45.693Z,57.67
2023-03-13T15:04:13.130Z,56.19
2023-03-13T15:06:40.575Z,56.86
2023-03-13T15:09:15.400Z,57.35
2023-03-13T15:12:02.651Z,57.67
2023-03-13T15:14:40.977Z,56.56
2023-03-13T15:17:22.679Z,55.92
2023-03-13T15:19:52.413Z,54.18
2023-03-13T15:22:35.235Z,54.42
2023-03-13T15:25:06.663Z,55.66
2023-03-13T15:27:35.248Z,54.38
2023-03-13T15:30:02.848Z,55.14
2023-03-13T15:32:33.318Z,55.22
2023-03-13T15:35:02.116Z,55.08
2023-03-13T15:37:30.949Z,54.71
2023-03-13T15:39:58.418Z,55.23
2023-03-13T15:42:26.176Z,55.22
2023-03-13T15:44:53.654Z,54.93
2023-03-13T15:47:22.681Z,55.61
2023-03-13T15:49:50.050Z,55.28
2023-03-13T15:52:22.838Z,56.13
2023-03-13T15:54:51.416Z,56.00
2023-03-13T15:57:23.952Z,56.82
2023-03-13T15:59:52.449Z,56.58
2023-03-13T16:02:22.277Z,56.87
2023-03-13T16:04:50.346Z,57.37
2023-03-13T16:07:20.769Z,57.87
2023-03-13T16:09:48.547Z,58.85
2023-03-13T16:12:16.004Z,58.87
2023-03-13T16:14:43.437Z,58.23
2023-03-13T16:17:18.484Z,59.16
2023-03-13T16:19:46.752Z,58.46
2023-03-13T16:22:14.744Z,59.06
2023-03-13T16:24:42.546Z,58.80
2023-03-13T16:27:15.476Z,58.65
2023-03-13T16:29:43.536Z,58.60
2023-03-13T16:32:16.401Z,59.13
2023-03-13T16:34:44.180Z,60.07
2023-03-13T16:37:16.739Z,59.69
2023-03-13T16:39:45.121Z,59.78
2023-03-13T16:42:12.888Z,60.21
2023-03-13T16:44:40.614Z,60.59
2023-03-13T16:47:23.992Z,61.77
2023-03-13T16:49:51.431Z,61.84
2023-03-13T16:52:18.905Z,62.77
2023-03-13T16:54:46.560Z,62.02
2023-03-13T16:57:19.983Z,61.68
2023-03-13T16:59:47.365Z,62.27
2023-03-13T17:02:19.443Z,61.61
2023-03-13T17:04:47.960Z,62.59
2023-03-13T17:07:24.660Z,63.72
2023-03-13T17:09:52.661Z,64.32
2023-03-13T17:12:20.128Z,65.51
2023-03-13T17:14:47.555Z,66.92
2023-03-13T17:17:22.160Z,68.03
2023-03-13T17:19:49.636Z,70.05
2023-03-13T17:22:18.410Z,72.72
2023-03-13T17:24:45.913Z,73.94
2023-03-13T17:27:14.803Z,76.25
2023-03-13T17:29:42.979Z,77.11
2023-03-13T17:32:11.850Z,78.07
2023-03-13T17:34:39.375Z,79.59
2023-03-13T17:37:15.198Z,81.61
2023-03-13T17:39:43.711Z,82.97
2023-03-13T17:42:11.148Z,83.79
2023-03-13T17:44:39.289Z,85.09
2023-03-13T17:49:43.806Z,86.52
2023-03-13T17:52:14.950Z,86.83
2023-03-13T17:54:43.371Z,87.09
2023-03-13T17:57:19.259Z,89.00
2023-03-13T17:59:47.323Z,89.10
2023-03-13T18:02:15.838Z,88.95
2023-03-13T18:04:43.903Z,88.85
2023-03-13T18:07:22.979Z,88.64
2023-03-13T18:09:50.362Z,87.83
2023-03-13T18:12:17.948Z,88.03
2023-03-13T18:14:45.803Z,87.73
2023-03-13T18:17:23.909Z,87.09
2023-03-13T18:19:51.573Z,85.79
2023-03-13T18:22:25.265Z,86.02
2023-03-13T18:24:52.883Z,85.97
2023-03-13T18:27:22.081Z,87.41
2023-03-13T18:29:49.963Z,91.98
2023-03-13T18:32:19.301Z,95.68
2023-03-13T18:34:46.915Z,96.79
2023-03-13T18:37:29.448Z,99.03
2023-03-13T18:39:58.048Z,100.00
2023-03-13T18:42:26.130Z,100.00
2023-03-13T18:44:53.817Z,100.00
2023-03-13T18:47:23.553Z,100.00
2023-03-13T18:49:51.171Z,100.00
2023-03-13T18:52:18.716Z,100.00
2023-03-13T18:54:46.163Z,100.00
2023-03-13T18:57:16.122Z,100.00
2023-03-13T18:59:44.078Z,100.00
2023-03-13T19:02:17.688Z,100.00
2023-03-13T19:04:47.017Z,100.00
2023-03-13T19:07:26.060Z,100.00
2023-03-13T19:09:54.334Z,100.00
2023-03-13T19:12:21.361Z,100.00
2023-03-13T19:14:48.327Z,100.00
2023-03-13T19:17:29.540Z,100.00
2023-03-13T19:19:59.627Z,100.00
2023-03-13T19:22:27.205Z,100.00
2023-03-13T19:24:55.660Z,100.00
2023-03-13T19:27:23.130Z,100.00
2023-03-13T19:29:50.551Z,100.00
2023-03-13T19:32:19.211Z,100.00
2023-03-13T19:34:46.282Z,100.00
2023-03-13T19:37:15.506Z,100.00
2023-03-13T19:39:43.456Z,100.00
2023-03-13T19:42:10.714Z,100.00
2023-03-13T19:44:40.217Z,100.00
2023-03-13T19:47:07.421Z,100.00
2023-03-13T19:49:34.398Z,100.00
2023-03-13T19:52:01.390Z,100.00
2023-03-13T19:54:28.368Z,100.00
2023-03-13T19:56:55.337Z,100.00
2023-03-13T19:59:27.929Z,100.00
2023-03-13T20:01:59.583Z,100.00
2023-03-13T20:04:27.934Z,100.00
2023-03-13T20:06:55.176Z,100.00
2023-03-13T20:09:23.116Z,100.00
2023-03-13T20:11:50.216Z,100.00
2023-03-13T20:14:17.189Z,100.00
2023-03-13T20:16:46.503Z,100.00
2023-03-13T20:19:13.538Z,100.00
2023-03-13T20:21:42.001Z,100.00
2023-03-13T20:24:10.527Z,100.00
2023-03-13T20:26:37.496Z,100.00
2023-03-13T20:29:04.640Z,100.00
2023-03-13T20:31:32.253Z,100.00
2023-03-13T20:33:59.857Z,100.00
2023-03-13T20:36:27.737Z,100.00
2023-03-13T20:38:55.073Z,100.00
2023-03-13T20:41:25.040Z,100.00
2023-03-13T20:43:53.177Z,100.00
2023-03-13T20:46:20.809Z,100.00
2023-03-13T20:48:48.402Z,100.00
2023-03-13T20:51:15.860Z,100.00
2023-03-13T20:53:43.287Z,100.00
2023-03-13T20:56:11.682Z,100.00
2023-03-13T20:58:39.554Z,100.00
2023-03-13T21:01:07.802Z,100.00
2023-03-13T21:03:36.279Z,100.00
2023-03-13T21:06:10.592Z,100.00
2023-03-13T21:08:38.883Z,100.00
2023-03-13T21:11:33.732Z,100.00
2023-03-13T21:14:00.794Z,100.00
2023-03-13T21:16:27.898Z,100.00
2023-03-13T21:18:54.914Z,100.00
2023-03-13T21:21:22.429Z,100.00
2023-03-13T21:23:52.188Z,100.00
2023-03-13T21:26:19.826Z,100.00
2023-03-13T21:28:47.715Z,100.00
2023-03-13T21:31:17.562Z,100.00
2023-03-13T21:33:45.923Z,100.00
2023-03-13T21:36:15.707Z,100.00
2023-03-13T21:38:43.266Z,100.00
2023-03-13T21:41:13.213Z,100.00
2023-03-13T21:43:41.670Z,100.00
2023-03-13T21:46:14.125Z,100.00
2023-03-13T21:48:42.547Z,100.00
2023-03-13T21:51:10.758Z,100.00
2023-03-13T21:53:38.708Z,100.00
2023-03-13T21:56:06.558Z,100.00
2023-03-13T21:58:34.094Z,100.00
2023-03-13T22:01:01.529Z,100.00
2023-03-13T22:03:29.191Z,100.00
2023-03-13T22:05:56.691Z,100.00
2023-03-13T22:08:24.066Z,100.00
2023-03-13T22:10:54.815Z,100.00
2023-03-13T22:13:22.571Z,100.00
2023-03-13T22:15:50.693Z,100.00
2023-03-13T22:18:18.104Z,100.00
2023-03-13T22:20:45.388Z,100.00
2023-03-13T22:23:13.200Z,100.00
2023-03-13T22:25:42.394Z,100.00
2023-03-13T22:28:11.121Z,100.00
2023-03-13T22:30:39.142Z,100.00
2023-03-13T22:33:07.300Z,100.00
2023-03-13T22:35:35.663Z,100.00
2023-03-13T22:38:03.240Z,100.00
2023-03-13T22:40:30.636Z,100.00
2023-03-13T22:42:58.023Z,100.00
2023-03-13T22:45:25.720Z,100.00
2023-03-13T22:47:53.206Z,100.00
2023-03-13T22:50:25.525Z,100.00
2023-03-13T22:52:53.631Z,100.00
2023-03-13T22:55:21.172Z,100.00
2023-03-13T22:57:48.553Z,100.00
2023-03-13T23:00:16.354Z,100.00
2023-03-13T23:02:43.700Z,100.00
2023-03-13T23:05:11.288Z,100.00
2023-03-13T23:07:40.832Z,100.00
2023-03-13T23:10:10.077Z,100.00
2023-03-13T23:12:37.718Z,100.00
2023-03-13T23:15:06.208Z,100.00
2023-03-13T23:17:35.153Z,100.00
2023-03-13T23:20:12.889Z,100.00
2023-03-13T23:22:44.819Z,100.00
2023-03-13T23:25:13.697Z,100.00
2023-03-13T23:27:41.861Z,100.00
2023-03-13T23:30:11.233Z,100.00
2023-03-13T23:32:41.576Z,100.00
2023-03-13T23:35:10.946Z,100.00
2023-03-13T23:37:38.502Z,100.00
2023-03-13T23:40:11.796Z,100.00
2023-03-13T23:42:39.310Z,100.00
2023-03-13T23:45:07.185Z,100.00
2023-03-13T23:47:34.717Z,100.00
2023-03-13T23:50:02.786Z,100.00
2023-03-13T23:52:30.408Z,100.00
2023-03-13T23:54:57.856Z,100.00
2023-03-13T23:57:25.281Z,100.00
2023-03-13T23:59:52.847Z,100.00
